Time;durP1;ratioP1;P1;durP2;ratioP2;P2;SDS_P1;SDS_P2;PMS_P1;PMS_P2;Temp;Humidity;BMP_temperature;BMP_pressure;BME280_temperature;BME280_humidity;BME280_pressure;Samples;Min_cycle;Max_cycle;Signal;HPM_P1;HPM_P2
2021/09/18 00:01:09;;;;;;;2.20;1.40;;;;;;;10.60;95.38;100923.45;112594;1192;60541;-80
2021/09/18 00:03:36;;;;;;;2.40;1.70;;;;;;;10.57;95.49;100920.09;112550;1192;62125;-80
2021/09/18 00:06:03;;;;;;;4.70;1.80;;;;;;;10.54;95.44;100922.79;112601;1192;60939;-80
2021/09/18 00:08:29;;;;;;;3.10;1.40;;;;;;;10.50;95.55;100923.58;112643;1191;74731;-81
2021/09/18 00:10:56;;;;;;;2.40;1.40;;;;;;;10.46;95.46;100921.73;112735;1191;60243;-80
2021/09/18 00:13:22;;;;;;;3.90;1.90;;;;;;;10.41;95.50;100920.61;112740;1192;61129;-81
2021/09/18 00:15:49;;;;;;;3.80;1.70;;;;;;;10.39;95.91;100920.17;112670;1192;60243;-80
2021/09/18 00:18:15;;;;;;;3.60;1.60;;;;;;;10.36;95.90;100922.21;112719;1192;60242;-80
2021/09/18 00:20:42;;;;;;;2.00;1.20;;;;;;;10.33;95.83;100919.77;112682;1190;60143;-80
2021/09/18 00:23:09;;;;;;;1.90;1.50;;;;;;;10.29;95.73;100916.50;112679;1191;60148;-78
2021/09/18 00:25:35;;;;;;;2.80;1.70;;;;;;;10.27;96.06;100919.37;112510;1192;60349;-80
2021/09/18 00:28:02;;;;;;;5.90;1.90;;;;;;;10.24;96.11;100919.38;112605;1191;61910;-80
2021/09/18 00:30:29;;;;;;;3.20;1.50;;;;;;;10.19;96.17;100916.64;112565;1192;61434;-79
2021/09/18 00:32:55;;;;;;;2.20;1.50;;;;;;;10.16;96.26;100920.27;112573;1190;60358;-79
2021/09/18 00:35:22;;;;;;;3.40;1.50;;;;;;;10.12;96.17;100921.51;112592;1192;60252;-79
2021/09/18 00:37:49;;;;;;;4.10;2.00;;;;;;;10.07;96.19;100927.13;112527;1191;60247;-79
2021/09/18 00:40:15;;;;;;;4.90;2.00;;;;;;;10.03;96.43;100930.73;112435;1192;61934;-80
2021/09/18 00:42:42;;;;;;;3.70;1.60;;;;;;;9.99;96.39;100931.81;112690;1190;61152;-79
2021/09/18 00:45:09;;;;;;;2.70;1.30;;;;;;;9.96;96.75;100930.59;112495;1190;60256;-80
2021/09/18 00:47:36;;;;;;;4.00;1.80;;;;;;;9.94;96.87;100929.95;113040;1192;70771;-80
2021/09/18 00:50:04;;;;;;;4.70;1.80;;;;;;;9.91;96.98;100931.11;112616;1192;72364;-79
2021/09/18 00:52:31;;;;;;;4.20;1.30;;;;;;;9.90;97.05;100931.48;112631;1191;62137;-79
2021/09/18 00:54:59;;;;;;;5.00;1.80;;;;;;;9.87;96.99;100927.04;112701;1192;61240;-80
2021/09/18 00:57:28;;;;;;;5.70;2.20;;;;;;;9.83;97.12;100922.33;112435;1192;74220;-80
2021/09/18 00:59:54;;;;;;;3.60;1.60;;;;;;;9.80;97.63;100922.95;112611;1191;72153;-79
2021/09/18 01:02:21;;;;;;;5.20;1.70;;;;;;;9.76;97.45;100923.34;112499;1192;60224;-79
2021/09/18 01:04:49;;;;;;;4.90;1.80;;;;;;;9.75;98.01;100922.79;112515;1182;61637;-79
2021/09/18 01:07:16;;;;;;;3.40;1.50;;;;;;;9.75;98.07;100923.53;112421;1192;60166;-79
2021/09/18 01:09:42;;;;;;;3.10;1.70;;;;;;;9.74;98.27;100925.06;112572;1190;74818;-79
2021/09/18 01:12:09;;;;;;;6.70;2.00;;;;;;;9.73;98.61;100922.67;112529;1190;71212;-79
2021/09/18 01:14:42;;;;;;;3.60;1.70;;;;;;;9.72;98.39;100924.00;112491;1190;73654;-79
2021/09/18 01:17:08;;;;;;;6.50;1.90;;;;;;;9.71;98.45;100925.48;112941;1192;61786;-80
2021/09/18 01:19:35;;;;;;;2.90;1.80;;;;;;;9.71;98.68;100926.58;112500;1191;60305;-80
2021/09/18 01:22:04;;;;;;;8.90;1.90;;;;;;;9.70;98.77;100929.98;112924;1190;60242;-78
2021/09/18 01:24:31;;;;;;;3.30;1.90;;;;;;;9.71;98.85;100929.97;114025;1191;71070;-80
2021/09/18 01:26:58;;;;;;;5.50;1.80;;;;;;;9.70;98.99;100932.55;112490;1190;60361;-79
2021/09/18 01:29:24;;;;;;;3.20;1.30;;;;;;;9.69;98.92;100934.76;112459;1191;60830;-80
2021/09/18 01:31:51;;;;;;;3.40;2.40;;;;;;;9.69;99.23;100938.67;112709;1192;61825;-82
2021/09/18 01:34:20;;;;;;;2.30;1.60;;;;;;;9.66;99.12;100937.31;112601;1192;74526;-80
2021/09/18 01:36:47;;;;;;;3.00;2.00;;;;;;;9.65;99.10;100935.72;113061;1190;72280;-80
2021/09/18 01:39:15;;;;;;;6.50;1.90;;;;;;;9.64;98.92;100934.41;112978;1192;72671;-80
2021/09/18 01:41:44;;;;;;;3.10;1.70;;;;;;;9.62;98.83;100935.02;112674;1190;61999;-80
2021/09/18 01:44:14;;;;;;;2.80;1.40;;;;;;;9.59;99.03;100931.23;112632;1192;60240;-81
2021/09/18 01:46:41;;;;;;;2.80;1.50;;;;;;;9.58;98.97;100933.95;112694;1190;74659;-82
2021/09/18 01:49:13;;;;;;;4.20;1.90;;;;;;;9.56;99.19;100933.98;112625;1190;71168;-81
2021/09/18 01:51:42;;;;;;;2.40;1.50;;;;;;;9.55;99.18;100935.13;112850;1183;72578;-80
2021/09/18 01:54:10;;;;;;;4.60;1.90;;;;;;;9.55;99.30;100937.48;112720;1190;62987;-79
2021/09/18 01:56:37;;;;;;;4.80;2.10;;;;;;;9.54;99.49;100934.54;112410;1192;61469;-79
2021/09/18 01:59:03;;;;;;;2.50;1.50;;;;;;;9.55;99.65;100941.20;112475;1191;60223;-79
2021/09/18 02:01:30;;;;;;;2.70;1.60;;;;;;;9.54;99.72;100939.48;112597;1191;60245;-81
2021/09/18 02:03:57;;;;;;;5.20;2.10;;;;;;;9.55;99.82;100942.91;112637;1192;71767;-79
2021/09/18 02:06:23;;;;;;;3.60;1.60;;;;;;;9.55;99.94;100940.33;112473;1192;61972;-80
2021/09/18 02:08:50;;;;;;;2.80;1.30;;;;;;;9.55;100.00;100941.27;112611;1190;60282;-80
2021/09/18 02:11:30;;;;;;;3.20;1.60;;;;;;;9.54;99.69;100944.60;112444;1192;73645;-79
2021/09/18 02:13:57;;;;;;;2.50;1.20;;;;;;;9.51;99.48;100944.81;112551;1190;71141;-78
2021/09/18 02:16:24;;;;;;;3.30;1.60;;;;;;;9.46;99.22;100941.61;112616;1191;71555;-80
2021/09/18 02:18:50;;;;;;;5.00;1.90;;;;;;;9.43;99.26;100940.50;112872;1191;62009;-80
2021/09/18 02:21:17;;;;;;;2.90;1.90;;;;;;;9.38;99.25;100941.48;112643;1190;60246;-80
2021/09/18 02:23:43;;;;;;;3.40;1.70;;;;;;;9.34;99.29;100940.17;112483;1190;60965;-80
2021/09/18 02:26:10;;;;;;;4.40;1.60;;;;;;;9.30;99.41;100939.54;112451;1191;60253;-79
2021/09/18 02:28:36;;;;;;;5.60;1.80;;;;;;;9.27;99.74;100936.70;112384;1192;60192;-79
2021/09/18 02:31:02;;;;;;;4.80;2.10;;;;;;;9.26;100.00;100939.31;112527;1192;60247;-79
2021/09/18 02:33:29;;;;;;;7.00;2.10;;;;;;;9.24;99.96;100935.02;112406;1192;60282;-80
2021/09/18 02:35:55;;;;;;;3.90;2.00;;;;;;;9.24;100.00;100936.23;112493;1192;60263;-79
2021/09/18 02:38:22;;;;;;;4.70;2.10;;;;;;;9.25;100.00;100934.65;112430;1190;60256;-79
2021/09/18 02:40:52;;;;;;;5.60;1.50;;;;;;;9.25;100.00;100932.87;112429;1192;73703;-80
2021/09/18 02:43:19;;;;;;;3.80;2.10;;;;;;;9.24;100.00;100933.05;112940;1192;61112;-80
2021/09/18 02:45:45;;;;;;;3.60;1.80;;;;;;;9.24;100.00;100927.83;112577;1192;61207;-79
2021/09/18 02:48:12;;;;;;;4.90;1.90;;;;;;;9.25;100.00;100928.83;112472;1192;60256;-79
2021/09/18 02:50:39;;;;;;;6.60;2.30;;;;;;;9.25;100.00;100923.20;112454;1192;60314;-79
2021/09/18 02:53:05;;;;;;;4.10;2.00;;;;;;;9.25;100.00;100922.27;112262;1192;72552;-79
2021/09/18 02:55:31;;;;;;;4.20;1.70;;;;;;;9.24;100.00;100927.07;112412;1190;60220;-80
2021/09/18 02:57:58;;;;;;;5.90;2.10;;;;;;;9.25;100.00;100924.75;112828;1192;60285;-80
2021/09/18 03:00:25;;;;;;;2.80;1.70;;;;;;;9.24;100.00;100918.81;112871;1190;60214;-79
2021/09/18 03:02:51;;;;;;;3.70;2.00;;;;;;;9.23;100.00;100919.95;112448;1192;60189;-79
2021/09/18 03:05:18;;;;;;;2.70;1.90;;;;;;;9.22;100.00;100923.59;112438;1192;72381;-79
2021/09/18 03:07:45;;;;;;;3.40;2.20;;;;;;;9.21;100.00;100925.44;112474;1192;60286;-78
2021/09/18 03:10:12;;;;;;;2.50;1.80;;;;;;;9.22;100.00;100929.14;112187;1192;60241;-78
2021/09/18 03:12:39;;;;;;;5.90;2.30;;;;;;;9.21;100.00;100924.24;112654;1191;73950;-80
2021/09/18 03:15:08;;;;;;;4.80;2.10;;;;;;;9.22;100.00;100923.66;112628;1190;70994;-80
2021/09/18 03:17:35;;;;;;;5.10;2.50;;;;;;;9.23;100.00;100926.56;112490;1192;74084;-80
2021/09/18 03:20:03;;;;;;;4.90;2.20;;;;;;;9.22;100.00;100924.81;112828;1192;61953;-78
2021/09/18 03:22:30;;;;;;;10.70;2.60;;;;;;;9.23;100.00;100921.34;112580;1192;60475;-79
2021/09/18 03:24:56;;;;;;;4.30;2.70;;;;;;;9.24;100.00;100915.77;112445;1191;60185;-80
2021/09/18 03:27:23;;;;;;;4.60;2.50;;;;;;;9.25;100.00;100914.13;112491;1190;60262;-79
2021/09/18 03:29:49;;;;;;;7.30;2.40;;;;;;;9.26;100.00;100914.23;113186;1191;61130;-86
2021/09/18 03:32:16;;;;;;;3.60;2.40;;;;;;;9.26;100.00;100910.30;112184;1192;60246;-79
2021/09/18 03:34:42;;;;;;;4.00;2.50;;;;;;;9.27;100.00;100914.98;112703;1192;60236;-81
2021/09/18 03:37:09;;;;;;;4.10;2.60;;;;;;;9.29;100.00;100916.33;112498;1192;60234;-79
2021/09/18 03:39:35;;;;;;;5.30;2.50;;;;;;;9.31;100.00;100914.95;112418;1192;60703;-79
2021/09/18 03:42:02;;;;;;;4.10;2.70;;;;;;;9.33;100.00;100919.66;112395;1190;60284;-80
2021/09/18 03:44:29;;;;;;;4.00;2.60;;;;;;;9.35;100.00;100920.25;112877;1191;61929;-80
2021/09/18 03:46:55;;;;;;;4.50;2.40;;;;;;;9.40;100.00;100920.50;113503;1190;60675;-80
2021/09/18 03:49:22;;;;;;;3.90;2.30;;;;;;;9.45;100.00;100924.02;112929;1191;60170;-80
2021/09/18 03:51:49;;;;;;;4.00;2.70;;;;;;;9.52;100.00;100924.55;112282;1191;72065;-81
2021/09/18 03:54:15;;;;;;;6.10;2.70;;;;;;;9.57;100.00;100920.80;112337;1191;72664;-80
2021/09/18 03:56:42;;;;;;;5.40;2.20;;;;;;;9.64;100.00;100923.13;112405;1191;60157;-77
2021/09/18 03:59:08;;;;;;;7.00;2.80;;;;;;;9.69;100.00;100925.86;112375;1192;60813;-79
2021/09/18 04:01:35;;;;;;;5.10;2.50;;;;;;;9.74;100.00;100927.32;112501;1190;73934;-79
2021/09/18 04:04:01;;;;;;;8.30;2.70;;;;;;;9.78;100.00;100925.93;112351;1191;72158;-79
2021/09/18 04:06:28;;;;;;;4.00;2.60;;;;;;;9.84;100.00;100930.67;112586;1192;73764;-78
2021/09/18 04:08:55;;;;;;;8.10;2.70;;;;;;;9.88;100.00;100933.96;112399;1190;60249;-79
2021/09/18 04:11:21;;;;;;;5.80;3.00;;;;;;;9.92;100.00;100932.69;112381;1192;60143;-80
2021/09/18 04:13:48;;;;;;;6.30;2.90;;;;;;;9.95;100.00;100931.77;112291;1191;60248;-79
2021/09/18 04:16:15;;;;;;;6.00;2.90;;;;;;;10.01;100.00;100931.02;112122;1191;72040;-79
2021/09/18 04:18:41;;;;;;;5.90;2.60;;;;;;;10.05;100.00;100927.88;112401;1190;72541;-80
2021/09/18 04:21:08;;;;;;;6.20;2.80;;;;;;;10.10;100.00;100923.98;112540;1190;61858;-80
2021/09/18 04:23:34;;;;;;;5.20;2.90;;;;;;;10.15;100.00;100921.70;112424;1190;60166;-79
2021/09/18 04:26:01;;;;;;;5.00;2.40;;;;;;;10.19;100.00;100925.77;112313;1192;60359;-78
2021/09/18 04:28:28;;;;;;;7.40;2.50;;;;;;;10.26;100.00;100927.10;112213;1192;71048;-79
2021/09/18 04:30:54;;;;;;;4.20;2.70;;;;;;;10.31;100.00;100934.09;112431;1191;72444;-80
2021/09/18 04:33:21;;;;;;;4.30;2.60;;;;;;;10.36;100.00;100937.26;112478;1192;63238;-80
2021/09/18 04:35:47;;;;;;;4.60;2.70;;;;;;;10.39;100.00;100937.61;112763;1192;60983;-80
2021/09/18 04:38:14;;;;;;;6.40;2.80;;;;;;;10.44;100.00;100939.48;115251;1190;60210;-83
2021/09/18 04:40:41;;;;;;;4.60;2.50;;;;;;;10.48;100.00;100947.13;112547;1190;71093;-79
2021/09/18 04:43:07;;;;;;;5.30;2.40;;;;;;;10.53;100.00;100945.09;112511;1192;60340;-81
2021/09/18 04:45:34;;;;;;;11.30;2.60;;;;;;;10.58;100.00;100947.45;112525;1191;60880;-80
2021/09/18 04:48:00;;;;;;;4.30;2.70;;;;;;;10.63;100.00;100948.83;112370;1191;61537;-78
2021/09/18 04:50:27;;;;;;;5.50;2.80;;;;;;;10.67;100.00;100947.33;112630;1191;73888;-80
2021/09/18 04:52:53;;;;;;;6.70;2.90;;;;;;;10.69;100.00;100944.60;112633;1191;60225;-79
2021/09/18 04:55:20;;;;;;;3.50;2.60;;;;;;;10.70;100.00;100943.17;112527;1192;60156;-79
2021/09/18 04:57:46;;;;;;;4.70;2.70;;;;;;;10.70;100.00;100935.87;112647;1190;60710;-79
2021/09/18 05:00:13;;;;;;;5.60;2.90;;;;;;;10.73;100.00;100940.80;112475;1190;60271;-79
2021/09/18 05:02:39;;;;;;;4.60;2.50;;;;;;;10.76;100.00;100940.03;112346;1192;61450;-79
2021/09/18 05:05:07;;;;;;;8.90;3.00;;;;;;;10.79;100.00;100943.84;112008;1192;70988;-77
2021/09/18 05:07:34;;;;;;;4.20;2.60;;;;;;;10.83;100.00;100946.63;112301;1191;72659;-79
2021/09/18 05:10:00;;;;;;;4.90;2.90;;;;;;;10.86;100.00;100944.20;112617;1191;60295;-81
2021/09/18 05:12:27;;;;;;;4.80;2.70;;;;;;;10.90;100.00;100945.27;112539;1190;60940;-79
2021/09/18 05:14:53;;;;;;;3.00;2.20;;;;;;;10.95;100.00;100949.40;112491;1190;73830;-79
2021/09/18 05:17:20;;;;;;;5.00;2.60;;;;;;;10.98;99.96;100951.68;112561;1190;60250;-80
2021/09/18 05:19:46;;;;;;;4.50;2.30;;;;;;;11.04;99.90;100951.63;112517;1193;61400;-78
2021/09/18 05:22:13;;;;;;;8.00;3.00;;;;;;;11.08;99.94;100958.19;112346;1192;60685;-81
2021/09/18 05:24:39;;;;;;;6.20;2.70;;;;;;;11.14;99.90;100962.35;112424;1190;60149;-80
2021/09/18 05:27:06;;;;;;;4.60;2.80;;;;;;;11.16;99.39;100962.08;112479;1192;73792;-81
2021/09/18 05:29:33;;;;;;;3.90;3.00;;;;;;;11.18;99.13;100970.16;112763;1190;60348;-78
2021/09/18 05:31:59;;;;;;;7.10;3.40;;;;;;;11.22;99.04;100968.00;112532;1190;73544;-79
2021/09/18 05:34:26;;;;;;;4.80;2.60;;;;;;;11.26;98.98;100972.61;112399;1192;60231;-78
2021/09/18 05:36:52;;;;;;;3.80;2.50;;;;;;;11.31;98.61;100972.83;112398;1189;60613;-79
2021/09/18 05:39:19;;;;;;;4.30;2.20;;;;;;;11.31;98.21;100978.23;112414;1190;60265;-77
2021/09/18 05:41:45;;;;;;;3.70;2.50;;;;;;;11.31;98.00;100978.14;112494;1192;60181;-79
2021/09/18 05:44:12;;;;;;;4.40;2.90;;;;;;;11.31;97.92;100976.27;112388;1192;60225;-78
2021/09/18 05:46:38;;;;;;;6.20;3.30;;;;;;;11.31;98.11;100976.97;112563;1192;60257;-80
2021/09/18 05:49:05;;;;;;;4.40;3.10;;;;;;;11.33;98.16;100978.73;112285;1192;60192;-78
2021/09/18 05:51:31;;;;;;;6.10;3.30;;;;;;;11.36;98.07;100976.60;112271;1192;60342;-79
2021/09/18 05:53:58;;;;;;;6.00;2.80;;;;;;;11.38;98.07;100978.73;112303;1192;60230;-79
2021/09/18 05:56:24;;;;;;;4.40;3.00;;;;;;;11.40;98.01;100980.25;112510;1192;60236;-82
2021/09/18 05:59:02;;;;;;;4.70;3.30;;;;;;;11.44;98.07;100981.57;112533;1192;61995;-79
2021/09/18 06:01:29;;;;;;;6.40;3.30;;;;;;;11.51;98.01;100982.27;112465;1193;61089;-80
2021/09/18 06:03:56;;;;;;;4.40;3.10;;;;;;;11.57;97.80;100988.80;112748;1182;73550;-80
2021/09/18 06:06:22;;;;;;;5.50;2.60;;;;;;;11.63;97.51;100990.23;112680;1192;71167;-81
2021/09/18 06:08:49;;;;;;;6.60;3.10;;;;;;;11.69;97.23;100991.92;112706;1190;60233;-79
2021/09/18 06:11:16;;;;;;;4.10;2.50;;;;;;;11.73;96.91;100993.81;112422;1192;60239;-80
2021/09/18 06:13:42;;;;;;;5.00;2.70;;;;;;;11.78;96.68;100992.54;112523;1192;60269;-80
2021/09/18 06:16:13;;;;;;;3.70;2.20;;;;;;;11.82;96.40;100997.23;113061;1191;73923;-80
2021/09/18 06:18:41;;;;;;;4.10;2.60;;;;;;;11.84;96.03;100997.94;113810;1192;70932;-80
2021/09/18 06:21:08;;;;;;;4.80;2.80;;;;;;;11.88;95.77;100999.70;112746;1192;71096;-80
2021/09/18 06:23:37;;;;;;;3.10;2.30;;;;;;;11.90;95.90;101001.53;112620;1191;62418;-80
2021/09/18 06:26:05;;;;;;;3.40;2.30;;;;;;;11.96;95.79;101004.95;112773;1191;61437;-80
2021/09/18 06:28:31;;;;;;;4.80;2.80;;;;;;;11.99;95.23;101005.38;112665;1193;73965;-80
2021/09/18 06:31:02;;;;;;;6.50;3.10;;;;;;;12.02;95.20;100998.05;112652;1192;71188;-80
2021/09/18 06:33:28;;;;;;;4.10;2.40;;;;;;;12.05;95.07;100995.72;112596;1190;73622;-80
2021/09/18 06:35:55;;;;;;;9.10;3.30;;;;;;;12.11;95.27;101001.50;112535;1192;61945;-79
2021/09/18 06:38:23;;;;;;;5.40;2.80;;;;;;;12.19;95.41;101001.20;112579;1192;61545;-79
2021/09/18 06:40:51;;;;;;;4.40;2.50;;;;;;;12.27;94.69;100998.88;112406;1191;74137;-79
2021/09/18 06:43:19;;;;;;;4.90;2.80;;;;;;;12.31;93.95;100999.35;113067;1192;70980;-79
2021/09/18 06:45:46;;;;;;;3.30;2.60;;;;;;;12.35;93.57;100998.85;112531;1192;73506;-80
2021/09/18 06:48:13;;;;;;;6.20;2.60;;;;;;;12.41;93.54;101005.20;112972;1192;62759;-79
2021/09/18 06:50:41;;;;;;;3.50;2.50;;;;;;;12.50;93.63;101009.65;112382;1192;60268;-79
2021/09/18 06:53:08;;;;;;;4.50;2.40;;;;;;;12.58;93.01;101009.10;112781;1191;74738;-81
2021/09/18 06:55:36;;;;;;;3.80;2.60;;;;;;;12.66;92.90;101011.38;112673;1192;70996;-79
2021/09/18 06:58:03;;;;;;;7.30;2.50;;;;;;;12.70;91.51;101012.67;112457;1192;73605;-82
2021/09/18 07:00:31;;;;;;;5.10;2.50;;;;;;;12.69;91.14;101006.02;112575;1192;60240;-79
2021/09/18 07:02:58;;;;;;;5.10;2.80;;;;;;;12.69;90.94;101007.79;113420;1191;60616;-80
2021/09/18 07:05:25;;;;;;;4.40;2.60;;;;;;;12.70;90.83;101009.17;112486;1192;72542;-80
2021/09/18 07:07:51;;;;;;;4.40;2.50;;;;;;;12.74;91.35;101016.85;112513;1192;70986;-82
2021/09/18 07:10:18;;;;;;;6.10;2.70;;;;;;;12.76;91.31;101016.54;112534;1191;71813;-72
2021/09/18 07:12:44;;;;;;;5.20;2.70;;;;;;;12.82;91.66;101018.02;112089;1191;60325;-73
2021/09/18 07:15:12;;;;;;;5.40;2.60;;;;;;;12.90;92.10;101023.40;112287;1192;61151;-72
2021/09/18 07:17:38;;;;;;;4.70;2.30;;;;;;;12.96;91.11;101022.73;112463;1192;73833;-72
2021/09/18 07:20:07;;;;;;;2.50;1.60;;;;;;;12.98;90.63;101026.00;113287;1192;70350;-72
2021/09/18 07:22:34;;;;;;;3.10;2.30;;;;;;;13.00;90.17;101023.15;112623;1192;73864;-72
2021/09/18 07:25:01;;;;;;;5.00;2.30;;;;;;;13.00;90.18;101021.86;112126;1193;60332;-72
2021/09/18 07:27:27;;;;;;;3.90;2.30;;;;;;;13.01;90.28;101022.56;112696;1192;60267;-72
2021/09/18 07:29:56;;;;;;;5.10;2.70;;;;;;;13.03;90.36;101023.62;112298;1193;74806;-72
2021/09/18 07:32:22;;;;;;;6.20;2.90;;;;;;;13.04;90.32;101029.69;112070;1192;70517;-72
2021/09/18 07:34:49;;;;;;;5.40;3.90;;;;;;;13.06;90.60;101028.21;112309;1192;60684;-72
2021/09/18 07:37:16;;;;;;;4.50;2.90;;;;;;;13.06;90.28;101029.47;112110;1193;60236;-72
2021/09/18 07:39:43;;;;;;;5.50;3.20;;;;;;;13.06;90.41;101030.62;112202;1192;60680;-72
2021/09/18 07:42:09;;;;;;;6.20;3.10;;;;;;;13.08;91.01;101032.81;112642;1191;72625;-73
2021/09/18 07:44:36;;;;;;;8.80;4.40;;;;;;;13.11;91.00;101033.72;112106;1192;71974;-71
2021/09/18 07:47:03;;;;;;;5.00;2.40;;;;;;;13.12;91.16;101037.23;112177;1192;61026;-73
2021/09/18 07:49:29;;;;;;;5.00;3.00;;;;;;;13.11;91.07;101038.15;112283;1194;62032;-72
2021/09/18 07:51:56;;;;;;;5.90;3.10;;;;;;;13.11;91.32;101039.48;112387;1193;61348;-70
2021/09/18 07:54:23;;;;;;;8.10;2.50;;;;;;;13.10;91.49;101040.25;112306;1191;74462;-72
2021/09/18 07:56:49;;;;;;;6.70;3.00;;;;;;;13.10;91.61;101041.50;112262;1190;70683;-73
2021/09/18 07:59:16;;;;;;;6.20;3.20;;;;;;;13.11;91.74;101043.55;112290;1191;60243;-73
2021/09/18 08:01:42;;;;;;;4.70;2.40;;;;;;;13.13;92.02;101044.16;112234;1192;60230;-72
2021/09/18 08:04:09;;;;;;;10.40;4.20;;;;;;;13.15;91.99;101046.07;112385;1190;60644;-72
2021/09/18 08:06:36;;;;;;;5.50;2.70;;;;;;;13.18;91.86;101046.41;111988;1192;73489;-72
2021/09/18 08:09:05;;;;;;;8.30;3.10;;;;;;;13.20;91.52;101048.52;112339;1190;72016;-71
2021/09/18 08:11:33;;;;;;;6.70;2.60;;;;;;;13.25;91.69;101051.41;112279;1191;73558;-72
2021/09/18 08:14:02;;;;;;;4.60;2.70;;;;;;;13.31;91.00;101046.16;112479;1190;61720;-73
2021/09/18 08:16:29;;;;;;;7.50;2.90;;;;;;;13.35;91.33;101048.30;112350;1192;60271;-72
2021/09/18 08:18:56;;;;;;;6.20;2.60;;;;;;;13.43;90.79;101053.58;112272;1191;74994;-71
2021/09/18 08:21:22;;;;;;;5.80;3.70;;;;;;;13.49;90.72;101051.11;112367;1192;60931;-73
2021/09/18 08:23:49;;;;;;;3.30;2.10;;;;;;;13.56;90.39;101052.64;112202;1190;61021;-72
2021/09/18 08:26:15;;;;;;;6.40;3.10;;;;;;;13.61;89.88;101052.77;112275;1190;61558;-72
2021/09/18 08:28:42;;;;;;;6.90;2.80;;;;;;;13.68;89.70;101047.20;112250;1193;61034;-71
2021/09/18 08:31:08;;;;;;;5.50;3.20;;;;;;;13.77;89.84;101051.38;112434;1191;61062;-72
2021/09/18 08:33:36;;;;;;;4.20;2.30;;;;;;;13.93;90.01;101055.50;112282;1192;61006;-71
2021/09/18 08:36:02;;;;;;;7.30;3.60;;;;;;;14.07;89.08;101060.33;112239;1192;72600;-72
2021/09/18 08:38:29;;;;;;;7.80;4.10;;;;;;;14.18;88.85;101062.42;112206;1193;61668;-73
2021/09/18 08:40:55;;;;;;;11.10;4.90;;;;;;;14.30;88.63;101066.35;112322;1193;61058;-73
2021/09/18 08:43:22;;;;;;;7.10;3.80;;;;;;;14.46;88.47;101066.96;112252;1190;61021;-71
2021/09/18 08:45:49;;;;;;;8.80;4.10;;;;;;;14.64;88.71;101064.11;112309;1190;71013;-74
2021/09/18 08:48:17;;;;;;;8.90;4.40;;;;;;;14.82;87.60;101067.75;112286;1193;73570;-74
2021/09/18 08:50:49;;;;;;;6.40;4.00;;;;;;;14.91;86.15;101070.73;112314;1192;62064;-75
2021/09/18 08:53:16;;;;;;;9.20;3.40;;;;;;;14.99;85.85;101069.50;112382;1190;61399;-75
2021/09/18 08:55:42;;;;;;;5.60;3.50;;;;;;;15.04;85.01;101071.92;112383;1193;75243;-73
2021/09/18 08:58:09;;;;;;;6.40;4.60;;;;;;;15.07;84.75;101074.58;112490;1191;70385;-73
2021/09/18 09:00:35;;;;;;;6.60;4.10;;;;;;;15.11;84.51;101075.72;112395;1192;73503;-74
2021/09/18 09:03:07;;;;;;;6.10;3.50;;;;;;;15.11;84.12;101076.41;112421;1190;60990;-75
2021/09/18 09:05:38;;;;;;;6.20;4.10;;;;;;;15.14;84.37;101073.75;112152;1193;61134;-74
2021/09/18 09:08:12;;;;;;;6.00;3.70;;;;;;;15.24;84.59;101078.52;112588;1190;75765;-75
2021/09/18 09:10:45;;;;;;;6.50;4.10;;;;;;;15.38;84.69;101070.54;112549;1191;71154;-74
2021/09/18 09:13:20;;;;;;;6.40;3.20;;;;;;;15.56;84.42;101079.76;113724;1179;128884;-77
2021/09/18 09:15:50;;;;;;;8.00;4.70;;;;;;;15.72;83.77;101083.38;113198;1190;61526;-82
2021/09/18 09:18:23;;;;;;;6.10;4.10;;;;;;;15.92;83.91;101079.77;113016;1190;60389;-78
2021/09/18 09:23:44;;;;;;;7.00;4.30;;;;;;;16.15;80.05;101083.02;112494;1192;126809;-76
2021/09/18 09:26:14;;;;;;;6.20;4.20;;;;;;;16.10;80.27;101081.13;112766;1193;73610;-75
2021/09/18 09:28:43;;;;;;;7.70;4.50;;;;;;;16.13;81.24;101079.80;112271;1192;61059;-75
2021/09/18 09:31:26;;;;;;;6.90;4.40;;;;;;;16.26;81.69;101080.48;112244;1192;60986;-75
2021/09/18 09:34:16;;;;;;;7.50;5.20;;;;;;;16.42;81.43;101080.83;112258;1192;74620;-75
2021/09/18 09:36:48;;;;;;;5.50;3.60;;;;;;;16.54;80.48;101083.81;112282;1193;71109;-75
2021/09/18 09:39:21;;;;;;;9.20;5.10;;;;;;;16.59;79.57;101082.70;112287;1193;73980;-77
2021/09/18 09:41:51;;;;;;;6.00;4.10;;;;;;;16.68;80.49;101080.08;112279;1193;63604;-75
2021/09/18 09:44:20;;;;;;;5.10;3.50;;;;;;;16.79;79.49;101080.44;112287;1192;61043;-74
2021/09/18 09:47:07;;;;;;;6.60;4.80;;;;;;;16.80;78.84;101081.33;112281;1193;74383;-75
2021/09/18 09:49:53;;;;;;;6.60;5.10;;;;;;;16.93;78.98;101079.61;112459;1192;71052;-75
2021/09/18 09:52:30;;;;;;;5.80;4.40;;;;;;;17.11;78.73;101076.82;112382;1192;73663;-73
2021/09/18 09:55:06;;;;;;;5.90;3.50;;;;;;;17.28;79.06;101078.23;112283;1193;61236;-75
2021/09/18 09:57:32;;;;;;;7.80;4.00;;;;;;;17.42;76.88;101082.68;112253;1192;60952;-75
2021/09/18 10:00:03;;;;;;;4.90;3.50;;;;;;;17.45;75.93;101084.41;112257;1192;74768;-75
2021/09/18 10:02:29;;;;;;;5.90;4.30;;;;;;;17.62;76.93;101085.67;112365;1195;72056;-76
2021/09/18 10:04:58;;;;;;;5.40;3.80;;;;;;;17.98;76.50;101084.27;112193;1193;72586;-75
2021/09/18 10:07:24;;;;;;;5.80;4.10;;;;;;;18.20;74.91;101089.64;111980;1193;61307;-73
2021/09/18 10:09:51;;;;;;;4.50;3.40;;;;;;;18.30;74.13;101090.36;111885;1193;61077;-78
2021/09/18 10:12:18;;;;;;;4.70;3.30;;;;;;;18.19;72.64;101092.67;112094;1193;73672;-75
2021/09/18 10:14:49;;;;;;;3.90;2.80;;;;;;;18.18;74.18;101090.77;112064;1193;70988;-77
2021/09/18 10:17:17;;;;;;;3.70;2.70;;;;;;;18.27;74.03;101089.73;112427;1193;73678;-76
2021/09/18 10:25:18;;;;;;;2.80;2.00;;;;;;;18.73;72.34;101093.40;112246;1193;75652;-74
2021/09/18 10:27:58;;;;;;;3.40;2.20;;;;;;;18.88;71.39;101086.48;112550;1193;72474;-75
2021/09/18 10:30:47;;;;;;;4.10;1.80;;;;;;;19.06;71.64;101083.55;111846;1192;72630;-76
2021/09/18 10:33:38;;;;;;;5.20;2.00;;;;;;;19.14;70.02;101083.30;111924;1192;61095;-76
2021/09/18 10:36:14;;;;;;;2.80;1.60;;;;;;;19.19;69.53;101086.86;111990;1193;61005;-75
2021/09/18 10:38:41;;;;;;;3.30;2.00;;;;;;;19.18;69.52;101090.63;112536;1192;75577;-76
2021/09/18 10:41:20;;;;;;;3.70;2.40;;;;;;;19.22;69.07;101091.59;112247;1192;70983;-78
2021/09/18 10:44:01;;;;;;;4.20;2.30;;;;;;;19.34;70.17;101089.56;111902;1192;72574;-80
2021/09/18 10:46:43;;;;;;;3.00;1.80;;;;;;;19.53;68.62;101091.13;111945;1193;61990;-77
2021/09/18 10:49:32;;;;;;;3.10;1.50;;;;;;;19.66;67.68;101088.22;112191;1193;61091;-73
2021/09/18 10:52:16;;;;;;;2.60;1.30;;;;;;;19.72;66.41;101085.17;112052;1192;73887;-76
2021/09/18 10:55:05;;;;;;;;;;;;;;;19.80;65.56;101082.67;111999;1192;72598;-76
2021/09/18 10:57:38;;;;;;;3.20;1.40;;;;;;;19.86;65.67;101084.19;111981;1193;72316;-75
2021/09/18 11:00:12;;;;;;;2.60;1.30;;;;;;;19.97;65.51;101084.52;112603;1193;61052;-75
2021/09/18 11:02:41;;;;;;;3.40;1.80;;;;;;;19.91;64.17;101082.83;112307;1193;60986;-76
2021/09/18 11:05:20;;;;;;;3.10;1.60;;;;;;;19.88;64.87;101084.73;112405;1193;74815;-76
2021/09/18 11:07:47;;;;;;;4.00;1.50;;;;;;;19.89;64.64;101086.16;112117;1192;70771;-74
2021/09/18 11:10:19;;;;;;;2.50;1.70;;;;;;;19.93;65.29;101086.48;112203;1193;73623;-75
2021/09/18 11:13:43;;;;;;;3.20;2.00;;;;;;;19.96;64.36;101084.88;112261;1193;61071;-75
2021/09/18 11:16:25;;;;;;;2.70;1.70;;;;;;;19.85;65.19;101084.81;111583;1196;61457;-74
2021/09/18 11:18:58;;;;;;;3.00;1.80;;;;;;;19.85;65.65;101082.81;111656;1196;74832;-74
2021/09/18 11:21:28;;;;;;;2.50;1.80;;;;;;;19.92;65.63;101085.13;112218;1192;71043;-76
2021/09/18 11:24:02;;;;;;;3.10;1.80;;;;;;;20.03;64.80;101086.02;112076;1193;72663;-75
2021/09/18 11:26:44;;;;;;;4.60;1.70;;;;;;;20.08;64.90;101087.77;112233;1192;61081;-77
2021/09/18 11:29:35;;;;;;;3.10;1.70;;;;;;;19.96;64.05;101087.52;111960;1192;60919;-76
2021/09/18 11:32:06;;;;;;;4.30;1.50;;;;;;;19.76;64.73;101082.36;112266;1192;73762;-76